Главная страница
METAR-TAF:

METAR-TAF

Аэропорты :

Копенгаген, Дания

Каструп

широта: 55-37N, долгота: 012-39E, высота над уровнем моря: 5 м

Текущие метеонаблюдения

Эта сводка был подготовлена 16 минут назад, в 17:20 UTC
Ветер 11 Узел от северо-западный
Температура 15°C
Влажность 48%
Давление 1018 hPa
Видимость 10 км и более
Нет облачности ниже 1500 м, и нет кучево-дождевой облачности

METAR: EKCH 211720Z 32011KT CAVOK 15/04 Q1018 NOSIG

Время: 19:36 (17:36 UTC)

Прогноз

Эта сводка был подготовлена 33 минут назад, в 17:03 UTC
Прогноз действительный с 21-го 18 UTC до 22-го 18 UTC
Ветер 10 Узел от западно-северо-западный
Видимость 10 км и более
Нет облачности ниже 1500 м, и нет кучево-дождевой облачности
изменения
С 22-го 09 UTC до 22-го 12 UTC
Ветер 8 Узел от южный

TAF: EKCH 211703Z 2118/2218 30010KT CAVOK BECMG 2209/2212 17008KT

Метеонаблюдения и прогнозы для более 4000 аэропортов (сводки METAR и TAF).

Имеющиеся станции представлены на карте желтыми и красными точками.

Чтобы увидеть название станции, наведите на нее мышь.

Затем щелкните, чтобы увидеть метеонаблюдения и метеопрогнозы.

Управление картой: чтобы увеличить масштаб, щелкните зеленые кнопки с черным крестиком; чтобы уменьшить масштаб, щелкните зеленую кнопку с тире; для просмотра соседних карт щелкайте зеленые стрелки.


METAR-TAF: